General Aviation Weather

Text Reports

Enter one or more of the following location identifiers separated by a space:

Zip Code, Four-Character ICAO or Three-Character IATA airport codes.

METAR - Aviation Routine Weather Report
KDLL - Baraboo, Wisconsin
Updated at 2:15 PM GMT on September 04, 2015 (9:15 AM CDT):
METAR KDLL 041415Z AUTO 06004KT 5SM BR OVC005 20/18 A3005 RMK AO2 T02000177
TAF - Terminal Area Forecast
KDLL - Baraboo, Wisconsin
Updated at 2:15 PM GMT on September 04, 2015 (9:15 AM CDT):
No TAF is currently available for this location.
Decoded:
No decoded TAF is available.
PIREP - Pilot Weather Report
KDLL - Baraboo, Wisconsin
Updated at 2:15 PM GMT on September 04, 2015 (9:15 AM CDT):
No PIREP is currently available for this location.
AIRMET - Airmens Meteorological Information
KDLL - Baraboo, Wisconsin
Updated at 2:15 PM GMT on September 04, 2015 (9:15 AM CDT):
No AIRMET is currently available for this location.
SIGMET - Significant Meteorological Information
KDLL - Baraboo, Wisconsin
Updated at 2:15 PM GMT on September 04, 2015 (9:15 AM CDT):
No SIGMET is currently available for this location.
NOTAM - Notice to Airmen
KDLL - Baraboo, Wisconsin
Updated at 2:15 PM GMT on September 04, 2015 (9:15 AM CDT):
No NOTAM is currently available for this location.
Forecast Area
KDLL - Baraboo, Wisconsin
Updated at 2:15 PM GMT on September 04, 2015 (9:15 AM CDT):
No NOTAM is currently available for this location.
Aviation Weather Maps